Juergen K — PBKV — position and weather

sailwx.info

Track history (hours):
 
Tides and Currents Weather Stations Pressure Air Temp Water Temp Dewpoint Dewpoint Depression Visibility Wind Speed Wind Dir Waves Ship Positions

Juergen K

Last reported at 2014-Jul-23 17:33 UTC. Time now 2014-Jul-23 18:07 UTC.
Position N 51°08' E 001°52'.

Length 89 m; draft 5.5 m.

Type: Cargo ship. MMSI: 244329000.

Date/timePositionNaut miles runAvg speedWind from/ knotsBaromVisibWave heightAir tempDewpointWater temp
2014-Jul-23 17:33N 51°08' E 001°52'7 7.4
2014-Jul-23 16:33N 51°04' E 001°43'7 7.2
2014-Jul-23 15:33N 50°58' E 001°36'8 7.7
2014-Jul-23 14:28N 50°51' E 001°28'11 8.7
2014-Jul-23 13:15N 50°41' E 001°22'24 9.0
2014-Jul-23 10:33N 50°27' E 000°51'10 9.4
2014-Jul-23 09:32N 50°25' E 000°36'228 9.9
2014-Jul-22 10:33N 49°02' W 004°52'1010.1
2014-Jul-22 09:33N 48°57' W 005°06'1010.0
2014-Jul-22 08:33N 48°52' W 005°19'18 9.1
2014-Jul-22 06:33N 48°41' W 005°40'27 9.0
2014-Jul-22 03:33N 48°17' W 005°59'19 9.5
2014-Jul-22 01:33N 47°60' W 006°12'  
2014-Jul-19 04:32N 37°55' W 009°37'9 9.5
2014-Jul-19 03:33N 37°46' W 009°34'10 9.6
2014-Jul-19 02:33N 37°37' W 009°31'71 8.4
2014-Jul-18 18:04N 36°39' W 008°40'5 8.8
2014-Jul-18 17:33N 36°37' W 008°34'11 9.2
2014-Jul-18 16:19N 36°34' W 008°21'7 8.9
2014-Jul-18 15:32N 36°32' W 008°12'9 9.0
2014-Jul-18 14:33N 36°30' W 008°02'19 9.5
2014-Jul-18 12:33N 36°25' W 007°39'13 9.5
2014-Jul-18 11:11N 36°21' W 007°23'323 8.8
2014-Jul-16 22:24N 37°09' W 000°45'37 9.6
2014-Jul-16 18:32N 37°29' W 000°06'59 9.4
2014-Jul-16 12:17N 37°59' E 000°58'1 0.7
2014-Jul-16 11:19N 37°59' E 000°59'64 9.4
2014-Jul-16 04:33N 38°33' E 002°08'10 9.9
2014-Jul-16 03:33N 38°38' E 002°18'10 9.8
2014-Jul-16 02:31N 38°43' E 002°29'10 9.9
2014-Jul-16 01:33N 38°48' E 002°40'1110.1
2014-Jul-16 00:30N 38°54' E 002°51'1010.2
2014-Jul-15 23:33N 38°59' E 003°02'10 9.8
2014-Jul-15 22:33N 39°05' E 003°12'10 9.7
2014-Jul-15 21:33N 39°10' E 003°23'10 9.9
2014-Jul-15 20:33N 39°15' E 003°34'100 9.7
2014-Jul-15 10:17N 40°00' E 005°29'46 9.4
2014-Jul-15 05:24N 40°19' E 006°24'  
Track history (hours):
 
Tides and Currents Weather Stations Pressure Air Temp Water Temp Dewpoint Dewpoint Depression Visibility Wind Speed Wind Dir Waves Ship Positions

Juergen K

Last reported at 2014-Jul-23 17:33 UTC. Time now 2014-Jul-23 18:07 UTC.
Position N 51°08' E 001°52'.

Length 89 m; draft 5.5 m.

Type: Cargo ship. MMSI: 244329000.

Date/timePositionNaut miles runAvg speedWind from/ knotsBaromVisibWave heightAir tempDewpointWater temp
2014-Jul-23 17:33N 51°08' E 001°52'7 7.4
2014-Jul-23 16:33N 51°04' E 001°43'7 7.2
2014-Jul-23 15:33N 50°58' E 001°36'8 7.7
2014-Jul-23 14:28N 50°51' E 001°28'11 8.7
2014-Jul-23 13:15N 50°41' E 001°22'24 9.0
2014-Jul-23 10:33N 50°27' E 000°51'10 9.4
2014-Jul-23 09:32N 50°25' E 000°36'228 9.9
2014-Jul-22 10:33N 49°02' W 004°52'1010.1
2014-Jul-22 09:33N 48°57' W 005°06'1010.0
2014-Jul-22 08:33N 48°52' W 005°19'18 9.1
2014-Jul-22 06:33N 48°41' W 005°40'27 9.0
2014-Jul-22 03:33N 48°17' W 005°59'19 9.5
2014-Jul-22 01:33N 47°60' W 006°12'  
2014-Jul-19 04:32N 37°55' W 009°37'9 9.5
2014-Jul-19 03:33N 37°46' W 009°34'10 9.6
2014-Jul-19 02:33N 37°37' W 009°31'71 8.4
2014-Jul-18 18:04N 36°39' W 008°40'5 8.8
2014-Jul-18 17:33N 36°37' W 008°34'11 9.2
2014-Jul-18 16:19N 36°34' W 008°21'7 8.9
2014-Jul-18 15:32N 36°32' W 008°12'9 9.0
2014-Jul-18 14:33N 36°30' W 008°02'19 9.5
2014-Jul-18 12:33N 36°25' W 007°39'13 9.5
2014-Jul-18 11:11N 36°21' W 007°23'323 8.8
2014-Jul-16 22:24N 37°09' W 000°45'37 9.6
2014-Jul-16 18:32N 37°29' W 000°06'59 9.4
2014-Jul-16 12:17N 37°59' E 000°58'1 0.7
2014-Jul-16 11:19N 37°59' E 000°59'64 9.4
2014-Jul-16 04:33N 38°33' E 002°08'10 9.9
2014-Jul-16 03:33N 38°38' E 002°18'10 9.8
2014-Jul-16 02:31N 38°43' E 002°29'10 9.9
2014-Jul-16 01:33N 38°48' E 002°40'1110.1
2014-Jul-16 00:30N 38°54' E 002°51'1010.2
2014-Jul-15 23:33N 38°59' E 003°02'10 9.8
2014-Jul-15 22:33N 39°05' E 003°12'10 9.7
2014-Jul-15 21:33N 39°10' E 003°23'10 9.9
2014-Jul-15 20:33N 39°15' E 003°34'100 9.7
2014-Jul-15 10:17N 40°00' E 005°29'46 9.4
2014-Jul-15 05:24N 40°19' E 006°24'  

Dump ship's entire track history